Time;durP1;ratioP1;P1;durP2;ratioP2;P2;SDS_P1;SDS_P2;PMS_P1;PMS_P2;Temp;Humidity;BMP_temperature;BMP_pressure;BME280_temperature;BME280_humidity;BME280_pressure;Samples;Min_cycle;Max_cycle;Signal;HPM_P1;HPM_P2
2023/09/29 00:00:58;;;;;;;19.17;11.60;;;15.70;99.90;;;;;;4949915;29;20199;-83
2023/09/29 00:03:26;;;;;;;22.00;12.13;;;15.70;99.90;;;;;;4948030;28;20188;-84
2023/09/29 00:05:54;;;;;;;24.00;12.27;;;15.70;99.90;;;;;;4950098;28;20191;-84
2023/09/29 00:08:22;;;;;;;20.77;11.85;;;15.70;99.90;;;;;;4970384;28;20258;-84
2023/09/29 00:10:50;;;;;;;20.75;10.70;;;15.60;99.90;;;;;;4951237;28;20272;-84
2023/09/29 00:13:17;;;;;;;18.48;11.95;;;15.60;99.90;;;;;;4970374;28;20271;-83
2023/09/29 00:15:48;;;;;;;14.25;10.40;;;15.50;99.90;;;;;;4952766;28;20196;-84
2023/09/29 00:18:15;;;;;;;19.17;11.32;;;15.60;99.90;;;;;;4970366;28;20191;-84
2023/09/29 00:20:43;;;;;;;14.55;10.60;;;15.60;99.90;;;;;;4965722;28;20298;-84
2023/09/29 00:23:12;;;;;;;17.60;11.02;;;15.50;99.90;;;;;;4952750;28;20261;-83
2023/09/29 00:25:40;;;;;;;14.77;9.73;;;15.50;99.90;;;;;;4952685;28;20195;-83
2023/09/29 00:28:07;;;;;;;15.00;9.90;;;15.50;99.90;;;;;;4970066;28;20279;-84
2023/09/29 00:30:35;;;;;;;18.70;10.85;;;15.50;99.90;;;;;;4969887;28;20258;-84
2023/09/29 00:33:03;;;;;;;18.50;11.75;;;15.50;99.90;;;;;;4949434;28;20193;-84
2023/09/29 00:35:33;;;;;;;15.45;9.85;;;15.50;99.90;;;;;;4969364;28;20662;-84
2023/09/29 00:38:01;;;;;;;19.13;11.77;;;15.50;99.90;;;;;;4953605;28;20215;-83
2023/09/29 00:40:29;;;;;;;18.48;12.10;;;15.40;99.90;;;;;;4970043;28;20188;-84
2023/09/29 00:42:59;;;;;;;19.55;11.38;;;15.40;99.90;;;;;;4970030;28;20255;-83
2023/09/29 00:45:28;;;;;;;16.08;10.20;;;15.50;99.90;;;;;;4968789;28;20258;-83
2023/09/29 00:48:07;;;;;;;15.57;10.20;;;15.40;99.90;;;;;;4970156;28;20239;-84
2023/09/29 00:50:38;;;;;;;15.25;10.48;;;15.40;99.90;;;;;;4974216;28;20295;-84
2023/09/29 00:53:11;;;;;;;17.27;10.75;;;15.40;99.90;;;;;;4974053;28;20184;-84
2023/09/29 00:55:44;;;;;;;17.38;11.50;;;15.40;99.90;;;;;;4956310;28;20192;-84
2023/09/29 00:58:15;;;;;;;14.98;10.32;;;15.40;99.90;;;;;;4974188;28;20283;-84
2023/09/29 01:00:43;;;;;;;15.20;10.43;;;15.30;99.90;;;;;;4973727;28;20200;-83
2023/09/29 01:03:14;;;;;;;17.38;11.60;;;15.30;99.90;;;;;;4973980;28;20192;-84
2023/09/29 01:05:47;;;;;;;15.07;10.32;;;15.20;99.90;;;;;;4969796;28;20270;-83
2023/09/29 01:08:23;;;;;;;16.42;10.85;;;15.20;99.90;;;;;;4953666;28;20219;-83
2023/09/29 01:10:54;;;;;;;18.67;11.48;;;15.20;99.90;;;;;;4973265;28;20330;-83
2023/09/29 01:13:22;;;;;;;17.58;11.55;;;15.30;99.90;;;;;;4974242;28;20243;-83
2023/09/29 01:15:50;;;;;;;16.42;10.80;;;15.30;99.90;;;;;;4955961;28;20196;-83
2023/09/29 01:18:19;;;;;;;16.88;11.45;;;15.30;99.90;;;;;;4964136;28;20561;-84
2023/09/29 01:20:47;;;;;;;14.93;10.30;;;15.20;99.90;;;;;;4971593;28;20200;-83
2023/09/29 01:23:15;;;;;;;16.73;10.18;;;15.20;99.90;;;;;;4973281;28;20200;-84
2023/09/29 01:25:42;;;;;;;18.27;10.27;;;15.00;99.90;;;;;;4973067;28;20633;-85
2023/09/29 01:28:13;;;;;;;16.30;11.00;;;15.00;99.90;;;;;;4973100;28;20659;-83
2023/09/29 01:30:41;;;;;;;16.02;11.02;;;15.00;99.90;;;;;;4970549;28;20271;-83
2023/09/29 01:33:09;;;;;;;15.57;10.70;;;14.90;99.90;;;;;;4967007;28;20567;-83
2023/09/29 01:35:39;;;;;;;16.33;10.35;;;14.90;99.90;;;;;;4972996;28;20220;-83
2023/09/29 01:38:07;;;;;;;18.50;11.25;;;15.00;99.90;;;;;;4955486;28;20947;-84
2023/09/29 01:40:34;;;;;;;19.13;10.93;;;14.90;99.90;;;;;;4972949;28;20192;-83
2023/09/29 01:43:02;;;;;;;16.05;11.05;;;14.90;99.90;;;;;;4971475;28;20291;-83
2023/09/29 01:45:32;;;;;;;20.63;11.65;;;14.80;99.90;;;;;;4955127;28;20709;-83
2023/09/29 01:48:02;;;;;;;16.05;10.73;;;14.70;99.90;;;;;;4967338;28;20594;-82
2023/09/29 01:50:32;;;;;;;19.27;11.68;;;14.80;99.90;;;;;;4973213;28;20188;-84
2023/09/29 01:53:00;;;;;;;15.88;10.18;;;14.70;99.90;;;;;;4973398;28;20184;-84
2023/09/29 01:55:29;;;;;;;16.45;11.38;;;14.70;99.90;;;;;;4965639;28;20663;-83
2023/09/29 01:57:57;;;;;;;16.65;11.25;;;14.80;99.90;;;;;;4962762;28;20828;-84
2023/09/29 02:00:28;;;;;;;16.52;11.25;;;14.80;99.90;;;;;;4972583;28;20634;-85
2023/09/29 02:02:59;;;;;;;17.88;10.60;;;14.80;99.90;;;;;;4972598;28;20637;-83
2023/09/29 02:05:28;;;;;;;15.77;10.43;;;14.80;99.90;;;;;;4953698;28;20207;-84
2023/09/29 02:07:56;;;;;;;18.60;11.20;;;14.80;99.90;;;;;;4951242;29;20285;-84
2023/09/29 02:10:26;;;;;;;14.48;10.07;;;14.80;99.90;;;;;;4955455;28;20646;-82
2023/09/29 02:12:56;;;;;;;15.02;11.05;;;14.70;99.90;;;;;;4949080;28;20273;-83
2023/09/29 02:15:24;;;;;;;15.30;9.93;;;14.60;99.90;;;;;;4951672;29;20577;-84
2023/09/29 02:17:52;;;;;;;18.20;10.73;;;14.60;99.90;;;;;;4959789;28;20560;-82
2023/09/29 02:20:30;;;;;;;15.95;10.65;;;14.60;99.90;;;;;;4955329;28;20204;-83
2023/09/29 02:22:59;;;;;;;15.35;9.50;;;14.40;99.90;;;;;;4954657;28;20207;-83
2023/09/29 02:25:29;;;;;;;16.48;10.00;;;14.50;99.90;;;;;;4950140;28;20199;-83
2023/09/29 02:27:59;;;;;;;20.65;10.25;;;14.50;99.90;;;;;;4955159;28;20184;-84
2023/09/29 02:30:28;;;;;;;15.88;10.55;;;14.60;99.90;;;;;;4970394;28;20231;-83
2023/09/29 02:32:56;;;;;;;14.70;10.07;;;14.50;99.90;;;;;;4946376;28;20188;-84
2023/09/29 02:35:24;;;;;;;17.17;11.02;;;14.50;99.90;;;;;;4954725;28;20188;-83
2023/09/29 02:37:52;;;;;;;16.23;10.90;;;14.50;99.90;;;;;;4961965;28;20246;-83
2023/09/29 02:40:22;;;;;;;15.27;10.50;;;14.50;99.90;;;;;;4971794;28;20190;-84
2023/09/29 02:42:50;;;;;;;16.80;11.18;;;14.40;99.90;;;;;;4965647;28;20200;-83
2023/09/29 02:45:19;;;;;;;15.98;10.23;;;14.40;99.90;;;;;;4954966;28;20214;-85
2023/09/29 02:47:47;;;;;;;15.15;10.48;;;14.40;99.90;;;;;;4970405;28;20557;-83
2023/09/29 02:50:16;;;;;;;16.65;10.00;;;14.20;99.90;;;;;;4954579;28;20203;-84
2023/09/29 02:52:44;;;;;;;14.27;9.82;;;14.10;99.90;;;;;;4954120;28;20222;-83
2023/09/29 02:55:14;;;;;;;17.17;10.02;;;14.10;99.90;;;;;;4938270;28;20196;-84
2023/09/29 02:57:43;;;;;;;15.63;10.43;;;14.20;99.90;;;;;;4953932;28;20238;-83
2023/09/29 03:00:18;;;;;;;18.15;11.25;;;14.20;99.90;;;;;;4938170;28;20270;-84
2023/09/29 03:02:48;;;;;;;16.20;10.23;;;14.30;99.90;;;;;;4937785;28;20499;-84
2023/09/29 03:05:18;;;;;;;17.73;11.40;;;14.20;99.90;;;;;;4971385;28;20677;-84
2023/09/29 03:07:45;;;;;;;18.38;10.95;;;14.30;99.90;;;;;;4959849;28;20200;-84
2023/09/29 03:10:17;;;;;;;19.80;12.35;;;14.30;99.90;;;;;;4953600;28;20266;-85
2023/09/29 03:12:45;;;;;;;17.23;11.10;;;14.30;99.90;;;;;;4952920;28;20942;-84
2023/09/29 03:15:16;;;;;;;16.27;11.73;;;14.40;99.90;;;;;;4953773;28;20245;-84
2023/09/29 03:17:45;;;;;;;18.40;11.98;;;14.40;99.90;;;;;;4971364;28;20207;-84
2023/09/29 03:20:14;;;;;;;19.95;11.55;;;14.40;99.90;;;;;;4971733;28;20207;-84
2023/09/29 03:22:44;;;;;;;14.73;10.30;;;14.30;99.90;;;;;;4970993;28;20974;-84
2023/09/29 03:25:19;;;;;;;19.08;11.27;;;14.30;99.90;;;;;;4950266;28;20213;-83
2023/09/29 03:27:48;;;;;;;17.45;10.80;;;14.30;99.90;;;;;;4954197;28;20195;-84
2023/09/29 03:30:15;;;;;;;19.88;11.05;;;14.30;99.90;;;;;;4954100;28;20259;-84
2023/09/29 03:32:44;;;;;;;18.08;11.52;;;14.40;99.90;;;;;;4969539;28;20188;-84
2023/09/29 03:35:13;;;;;;;21.60;11.45;;;14.40;99.90;;;;;;4970839;28;20198;-83
2023/09/29 03:37:43;;;;;;;12.55;9.23;;;14.30;99.90;;;;;;4970852;28;20224;-83
2023/09/29 03:40:16;;;;;;;14.85;11.15;;;14.30;99.90;;;;;;4957011;28;20204;-83
2023/09/29 03:42:44;;;;;;;18.38;12.27;;;14.30;99.90;;;;;;4949966;29;20205;-84
2023/09/29 03:45:12;;;;;;;14.70;11.13;;;14.30;99.90;;;;;;4944853;28;20200;-83
2023/09/29 03:47:41;;;;;;;15.48;10.93;;;14.30;99.90;;;;;;4969362;28;20188;-84
2023/09/29 03:50:11;;;;;;;16.58;11.05;;;14.40;99.90;;;;;;4971157;28;20558;-83
2023/09/29 03:52:41;;;;;;;14.18;10.68;;;14.40;99.90;;;;;;4958362;28;20182;-84
2023/09/29 03:55:13;;;;;;;18.42;11.45;;;14.30;99.90;;;;;;4970790;28;20828;-84
2023/09/29 03:57:48;;;;;;;16.75;11.82;;;14.30;99.90;;;;;;4970613;28;20188;-83
2023/09/29 04:00:18;;;;;;;16.23;11.40;;;14.30;99.90;;;;;;4969037;28;20716;-84
2023/09/29 04:02:50;;;;;;;16.50;10.90;;;14.20;99.90;;;;;;4965218;28;20552;-83
2023/09/29 04:05:20;;;;;;;17.25;10.80;;;14.20;99.90;;;;;;4971021;28;20689;-83
2023/09/29 04:07:47;;;;;;;19.23;12.27;;;14.20;99.90;;;;;;4971265;28;20275;-83
2023/09/29 04:10:15;;;;;;;18.70;12.02;;;14.20;99.90;;;;;;4970238;28;20187;-83
2023/09/29 04:12:47;;;;;;;16.65;11.27;;;14.20;99.90;;;;;;4970212;28;20555;-84
2023/09/29 04:15:16;;;;;;;17.35;11.30;;;14.20;99.90;;;;;;4960266;28;20678;-83
2023/09/29 04:17:43;;;;;;;21.02;12.27;;;14.20;99.90;;;;;;4970004;28;20211;-83
2023/09/29 04:20:12;;;;;;;16.70;11.23;;;14.20;99.90;;;;;;4970034;28;20271;-84
2023/09/29 04:22:40;;;;;;;17.15;11.60;;;14.20;99.90;;;;;;4970311;28;20188;-83
2023/09/29 04:25:09;;;;;;;17.67;12.15;;;14.20;99.90;;;;;;4968778;28;20235;-83
2023/09/29 04:27:38;;;;;;;21.45;13.93;;;14.20;99.90;;;;;;4962388;28;20211;-83
2023/09/29 04:30:07;;;;;;;19.65;13.38;;;14.10;99.90;;;;;;4968817;28;20797;-83
2023/09/29 04:32:35;;;;;;;18.65;13.38;;;14.10;99.90;;;;;;4951372;28;20279;-83
2023/09/29 04:35:05;;;;;;;23.45;14.70;;;14.10;99.90;;;;;;4968407;28;20199;-84
2023/09/29 04:37:32;;;;;;;19.63;14.10;;;14.10;99.90;;;;;;4968746;28;20211;-83
2023/09/29 04:40:00;;;;;;;21.13;14.60;;;14.20;99.90;;;;;;4969351;28;20195;-83
2023/09/29 04:42:27;;;;;;;21.10;13.85;;;14.10;99.90;;;;;;4971543;28;20195;-83
2023/09/29 04:44:55;;;;;;;22.73;14.65;;;14.10;99.90;;;;;;4952538;28;20208;-84
2023/09/29 04:47:22;;;;;;;21.70;13.93;;;14.00;99.90;;;;;;4969673;28;20541;-83
2023/09/29 04:49:50;;;;;;;24.88;16.95;;;14.10;99.90;;;;;;4952135;28;20673;-83
2023/09/29 04:52:18;;;;;;;23.73;16.00;;;14.10;99.90;;;;;;4966946;28;20215;-83
2023/09/29 04:54:46;;;;;;;23.10;15.77;;;14.10;99.90;;;;;;4952437;28;20199;-83
2023/09/29 04:57:13;;;;;;;23.92;16.00;;;14.10;99.90;;;;;;4970003;28;20218;-84
2023/09/29 04:59:41;;;;;;;21.52;16.30;;;14.10;99.90;;;;;;4970209;28;20198;-84
2023/09/29 05:02:08;;;;;;;22.73;16.10;;;14.10;99.90;;;;;;4945823;28;20196;-84
2023/09/29 05:04:36;;;;;;;26.10;17.35;;;14.00;99.90;;;;;;4969883;28;20203;-83
2023/09/29 05:07:04;;;;;;;26.15;16.90;;;14.10;99.90;;;;;;4946440;28;20697;-83
2023/09/29 05:09:31;;;;;;;24.80;16.45;;;14.00;99.90;;;;;;4965727;28;20192;-82
2023/09/29 05:11:59;;;;;;;27.73;17.55;;;14.00;99.90;;;;;;4949784;28;20822;-83
2023/09/29 05:14:26;;;;;;;24.15;15.93;;;14.00;99.90;;;;;;4963387;28;20730;-83
2023/09/29 05:16:54;;;;;;;26.65;18.02;;;14.00;99.90;;;;;;4936240;28;20184;-83
2023/09/29 05:19:22;;;;;;;24.63;17.77;;;14.00;99.90;;;;;;4960180;28;20710;-84
2023/09/29 05:21:49;;;;;;;24.48;16.73;;;14.00;99.90;;;;;;4968145;28;20192;-83
2023/09/29 05:24:17;;;;;;;25.38;17.08;;;13.90;99.90;;;;;;4969872;28;20671;-84
2023/09/29 05:26:44;;;;;;;22.08;15.75;;;13.90;99.90;;;;;;4952715;28;20204;-83
2023/09/29 05:29:12;;;;;;;28.33;18.23;;;13.90;99.90;;;;;;4969477;28;20250;-83
2023/09/29 05:31:39;;;;;;;27.38;17.08;;;14.00;99.90;;;;;;4969382;28;20306;-84
2023/09/29 05:34:07;;;;;;;25.75;15.80;;;13.90;99.90;;;;;;4973120;28;20219;-83
2023/09/29 05:36:35;;;;;;;27.95;17.60;;;13.80;99.90;;;;;;4972995;28;20206;-83
2023/09/29 05:39:04;;;;;;;26.63;18.70;;;13.90;99.90;;;;;;4952742;29;20214;-84
2023/09/29 05:41:31;;;;;;;24.83;16.75;;;14.00;99.90;;;;;;4964005;28;20196;-84
2023/09/29 05:44:00;;;;;;;27.00;17.98;;;13.90;99.90;;;;;;4955376;28;20188;-83
2023/09/29 05:46:27;;;;;;;27.05;17.13;;;13.80;99.90;;;;;;4972393;28;20208;-84
2023/09/29 05:48:55;;;;;;;25.90;17.10;;;13.70;99.90;;;;;;4938167;28;20205;-81
2023/09/29 05:51:23;;;;;;;25.83;18.77;;;13.70;99.90;;;;;;4970479;28;20184;-82
2023/09/29 05:53:50;;;;;;;26.98;18.08;;;13.70;99.90;;;;;;4972197;28;20267;-82
2023/09/29 05:56:18;;;;;;;30.95;18.45;;;13.80;99.90;;;;;;4972025;28;20293;-84
2023/09/29 05:58:46;;;;;;;22.95;16.17;;;13.80;99.90;;;;;;4971854;28;20188;-83
2023/09/29 06:01:15;;;;;;;24.27;17.67;;;13.70;99.90;;;;;;4967273;28;20250;-83
2023/09/29 06:03:43;;;;;;;29.88;18.88;;;13.70;99.90;;;;;;4971653;28;20187;-83
2023/09/29 06:06:11;;;;;;;25.25;18.08;;;13.80;99.90;;;;;;4971680;28;20667;-83
2023/09/29 06:08:39;;;;;;;27.05;17.73;;;13.80;99.90;;;;;;4957209;28;20200;-83
2023/09/29 06:11:09;;;;;;;25.05;16.85;;;13.80;99.90;;;;;;4967750;28;20196;-83
2023/09/29 06:13:40;;;;;;;24.25;17.33;;;13.90;99.90;;;;;;4954801;28;20188;-81
2023/09/29 06:16:08;;;;;;;29.95;19.25;;;13.80;99.90;;;;;;4971770;28;20670;-82
2023/09/29 06:18:36;;;;;;;27.77;17.83;;;13.90;99.90;;;;;;4971582;28;20192;-83
2023/09/29 06:21:04;;;;;;;26.85;17.20;;;13.80;99.90;;;;;;4953913;28;20223;-83
2023/09/29 06:23:32;;;;;;;28.48;18.52;;;13.80;99.90;;;;;;4968910;28;20199;-83
2023/09/29 06:26:00;;;;;;;26.40;17.08;;;13.80;99.90;;;;;;4945059;28;20212;-83
2023/09/29 06:28:28;;;;;;;27.15;18.40;;;13.80;99.90;;;;;;4972101;28;20180;-84
2023/09/29 06:30:56;;;;;;;27.95;18.75;;;13.80;99.90;;;;;;4971589;28;20239;-83
2023/09/29 06:33:27;;;;;;;25.55;16.70;;;13.80;99.90;;;;;;4971562;28;20188;-82
2023/09/29 06:35:58;;;;;;;24.58;17.95;;;13.80;99.90;;;;;;4969297;28;20204;-83
2023/09/29 06:38:28;;;;;;;25.92;17.67;;;13.80;99.90;;;;;;4967626;28;20199;-83
2023/09/29 06:40:58;;;;;;;26.63;17.60;;;13.80;99.90;;;;;;4970364;28;20559;-83
2023/09/29 06:43:26;;;;;;;25.55;17.50;;;13.80;99.90;;;;;;4951032;28;20289;-82
2023/09/29 06:45:53;;;;;;;23.58;15.57;;;13.80;99.90;;;;;;4955370;28;20218;-81
2023/09/29 06:48:27;;;;;;;26.50;17.30;;;13.80;99.90;;;;;;4970555;28;20188;-84
2023/09/29 06:50:59;;;;;;;26.25;16.80;;;13.80;99.90;;;;;;4953608;28;20195;-82
2023/09/29 06:53:29;;;;;;;25.15;17.13;;;13.90;99.90;;;;;;4966841;28;20192;-83
2023/09/29 06:55:58;;;;;;;26.52;16.77;;;13.90;99.90;;;;;;4970887;28;20270;-82
2023/09/29 06:58:26;;;;;;;26.23;16.67;;;14.00;99.90;;;;;;4954132;28;20348;-83
2023/09/29 07:00:56;;;;;;;27.45;17.15;;;14.00;99.90;;;;;;4967242;28;20220;-88
2023/09/29 07:03:31;;;;;;;25.80;16.05;;;14.00;99.90;;;;;;4955250;28;20192;-90
2023/09/29 07:06:01;;;;;;;27.80;17.08;;;14.00;99.90;;;;;;4944259;28;20283;-89
2023/09/29 07:08:29;;;;;;;24.17;16.45;;;14.00;99.90;;;;;;4942627;28;20242;-90
2023/09/29 07:10:57;;;;;;;27.55;16.95;;;14.00;99.90;;;;;;4958400;28;20200;-89
2023/09/29 07:13:24;;;;;;;26.20;18.05;;;14.00;99.90;;;;;;4958353;28;20191;-91
2023/09/29 07:15:53;;;;;;;25.15;17.27;;;13.90;99.90;;;;;;4958896;28;20199;-90
2023/09/29 07:18:21;;;;;;;29.08;17.60;;;13.90;99.90;;;;;;4955841;28;20243;-90
2023/09/29 07:20:53;;;;;;;26.27;17.00;;;13.90;99.90;;;;;;4952503;29;20220;-90
2023/09/29 07:23:22;;;;;;;26.58;16.58;;;14.00;99.90;;;;;;4946001;28;20223;-91
2023/09/29 07:25:53;;;;;;;27.08;16.15;;;14.10;99.90;;;;;;4943107;28;20675;-91
2023/09/29 07:28:21;;;;;;;22.08;15.63;;;14.10;99.90;;;;;;4973017;28;20597;-90
2023/09/29 07:30:50;;;;;;;24.70;16.95;;;14.00;99.90;;;;;;4974918;28;20255;-91
2023/09/29 07:33:18;;;;;;;24.42;15.77;;;14.00;99.90;;;;;;4945549;28;20291;-90
2023/09/29 07:35:46;;;;;;;25.80;17.67;;;14.00;99.90;;;;;;4975050;28;20232;-90
2023/09/29 07:38:17;;;;;;;27.02;17.42;;;14.00;99.90;;;;;;4958755;28;20211;-90
2023/09/29 07:40:46;;;;;;;27.00;18.00;;;14.10;99.90;;;;;;4958169;28;20200;-90
2023/09/29 07:43:14;;;;;;;28.92;17.67;;;14.20;99.90;;;;;;4958093;28;20288;-91
2023/09/29 07:45:41;;;;;;;25.38;17.38;;;14.30;99.90;;;;;;4949202;28;20267;-90
2023/09/29 07:48:11;;;;;;;23.85;16.38;;;14.30;99.90;;;;;;4957893;28;20203;-91
2023/09/29 07:50:39;;;;;;;25.27;17.95;;;14.40;99.90;;;;;;4942625;28;20188;-90
2023/09/29 07:53:08;;;;;;;27.98;19.05;;;14.50;99.90;;;;;;4958190;28;20180;-91
2023/09/29 07:55:36;;;;;;;26.77;18.00;;;14.60;99.90;;;;;;4957813;28;20662;-89
2023/09/29 07:58:04;;;;;;;26.13;18.10;;;14.60;99.90;;;;;;4941690;28;20883;-90
2023/09/29 08:00:31;;;;;;;24.60;17.60;;;14.60;99.90;;;;;;4941654;28;20192;-90
2023/09/29 08:02:59;;;;;;;26.30;17.27;;;14.70;99.90;;;;;;4955042;29;20222;-90
2023/09/29 08:05:28;;;;;;;27.75;18.23;;;14.80;99.90;;;;;;4938773;29;20197;-90
2023/09/29 08:07:55;;;;;;;26.10;16.95;;;14.90;99.90;;;;;;4939046;29;20220;-90
2023/09/29 08:10:22;;;;;;;26.65;17.90;;;14.90;99.90;;;;;;4955116;28;20188;-90
2023/09/29 08:12:52;;;;;;;24.90;17.40;;;15.00;99.90;;;;;;4975153;28;20208;-90
2023/09/29 08:15:21;;;;;;;28.17;17.25;;;15.10;99.90;;;;;;4942121;28;20270;-90
2023/09/29 08:17:49;;;;;;;29.70;18.50;;;15.20;99.90;;;;;;4962811;28;20208;-90
2023/09/29 08:20:18;;;;;;;24.55;17.10;;;15.30;99.90;;;;;;4964373;28;20556;-91
2023/09/29 08:22:46;;;;;;;26.25;17.77;;;15.30;99.90;;;;;;4938776;29;20203;-91
2023/09/29 08:25:16;;;;;;;27.60;16.58;;;15.30;99.90;;;;;;4942626;29;20196;-90
2023/09/29 08:27:44;;;;;;;26.13;17.55;;;15.30;99.90;;;;;;4938329;29;20207;-90
2023/09/29 08:30:12;;;;;;;23.63;16.63;;;15.50;99.90;;;;;;4938882;29;20224;-90
2023/09/29 08:32:42;;;;;;;28.92;16.90;;;15.60;99.90;;;;;;4943644;28;20246;-91
2023/09/29 08:35:13;;;;;;;26.27;15.88;;;15.60;99.90;;;;;;4957592;28;20239;-90
2023/09/29 08:37:45;;;;;;;25.08;15.45;;;15.60;99.90;;;;;;4958502;28;20179;-90
2023/09/29 08:40:14;;;;;;;25.77;15.82;;;15.70;99.90;;;;;;4954416;29;20188;-90
2023/09/29 08:42:50;;;;;;;25.75;16.17;;;15.70;99.90;;;;;;4965810;28;20192;-89
2023/09/29 08:45:19;;;;;;;24.27;16.58;;;15.80;99.90;;;;;;4972445;28;20608;-87
2023/09/29 08:47:51;;;;;;;22.17;15.10;;;15.90;99.90;;;;;;4964671;28;20200;-89
2023/09/29 08:50:22;;;;;;;27.05;16.10;;;16.00;99.90;;;;;;4957041;28;20226;-89
2023/09/29 08:52:51;;;;;;;28.63;17.05;;;16.00;99.90;;;;;;4973930;28;20215;-88
2023/09/29 08:55:19;;;;;;;24.08;16.00;;;16.20;99.90;;;;;;4955713;28;20195;-89
2023/09/29 08:57:47;;;;;;;22.05;15.18;;;16.20;99.90;;;;;;4956904;28;20191;-90
2023/09/29 09:00:16;;;;;;;25.92;16.38;;;16.20;99.90;;;;;;4956443;28;20601;-90
2023/09/29 09:02:44;;;;;;;23.33;15.63;;;16.20;99.90;;;;;;4972466;28;20188;-90
2023/09/29 09:05:14;;;;;;;23.88;16.95;;;16.20;99.90;;;;;;4973829;28;20218;-89
2023/09/29 09:07:43;;;;;;;23.80;15.55;;;16.50;99.90;;;;;;4941999;28;20583;-89
2023/09/29 09:10:12;;;;;;;24.75;14.63;;;16.50;99.90;;;;;;4957361;29;20192;-90
2023/09/29 09:12:43;;;;;;;21.90;14.98;;;16.60;99.90;;;;;;4974279;28;20270;-90
2023/09/29 09:15:12;;;;;;;23.10;14.75;;;16.70;99.90;;;;;;4956931;28;20188;-89
2023/09/29 09:17:40;;;;;;;25.13;17.20;;;16.70;99.90;;;;;;4946727;29;20569;-89
2023/09/29 09:20:10;;;;;;;24.77;15.02;;;16.80;99.90;;;;;;4952274;28;20613;-89
2023/09/29 09:22:38;;;;;;;22.13;14.25;;;16.80;99.90;;;;;;4950631;28;20255;-89
2023/09/29 09:25:11;;;;;;;23.42;14.20;;;17.00;99.90;;;;;;4944574;28;20200;-90
2023/09/29 09:27:40;;;;;;;20.30;14.30;;;17.00;99.90;;;;;;4960396;28;20551;-90
2023/09/29 09:30:20;;;;;;;25.40;15.43;;;17.00;99.90;;;;;;4959052;28;20238;-89
2023/09/29 09:32:48;;;;;;;25.48;15.02;;;17.10;99.90;;;;;;4965751;28;20188;-89
2023/09/29 09:35:27;;;;;;;23.92;14.18;;;17.20;99.90;;;;;;4960244;28;20390;-89
2023/09/29 09:37:56;;;;;;;22.30;14.07;;;17.30;99.90;;;;;;4976031;28;20274;-89
2023/09/29 09:40:27;;;;;;;19.75;14.25;;;17.40;99.90;;;;;;4976394;28;20271;-90
2023/09/29 09:42:58;;;;;;;25.52;14.63;;;17.50;99.90;;;;;;4945855;29;20224;-89
2023/09/29 09:45:29;;;;;;;21.45;14.77;;;17.60;99.90;;;;;;4941074;29;20224;-89
2023/09/29 09:47:58;;;;;;;23.08;13.95;;;17.70;99.90;;;;;;4936701;28;20744;-89
2023/09/29 09:50:28;;;;;;;20.30;12.70;;;17.90;99.90;;;;;;4959956;28;20184;-89
2023/09/29 09:52:59;;;;;;;21.80;13.60;;;18.00;99.90;;;;;;4955856;29;20205;-89
2023/09/29 09:55:50;;;;;;;25.23;13.32;;;18.10;99.90;;;;;;4963235;28;20192;-88
2023/09/29 09:58:21;;;;;;;22.48;13.45;;;18.20;99.90;;;;;;4950186;28;20198;-87
2023/09/29 10:00:55;;;;;;;20.95;12.43;;;18.30;99.90;;;;;;4956756;28;20227;-87
2023/09/29 10:03:26;;;;;;;19.70;13.15;;;18.40;99.90;;;;;;4941675;28;20195;-88
2023/09/29 10:05:55;;;;;;;20.15;12.43;;;18.40;99.90;;;;;;4963796;28;20188;-88
2023/09/29 10:08:30;;;;;;;21.50;12.00;;;18.40;99.90;;;;;;4953835;28;20246;-88
2023/09/29 10:11:11;;;;;;;21.80;13.25;;;18.70;99.90;;;;;;4957203;28;20593;-88
2023/09/29 10:13:44;;;;;;;22.67;12.40;;;18.70;99.90;;;;;;4957755;28;20211;-88
2023/09/29 10:16:25;;;;;;;17.63;12.30;;;18.80;99.90;;;;;;4928738;28;20189;-88
2023/09/29 10:18:58;;;;;;;21.23;11.93;;;18.70;99.90;;;;;;4952870;28;20196;-87
2023/09/29 10:21:45;;;;;;;18.40;12.65;;;18.70;99.90;;;;;;4937872;28;20215;-88
2023/09/29 10:24:28;;;;;;;19.13;12.75;;;18.90;99.90;;;;;;4939440;28;20659;-87
2023/09/29 10:27:03;;;;;;;18.42;11.80;;;19.10;99.90;;;;;;4948882;28;20224;-87
2023/09/29 10:29:35;;;;;;;18.55;11.18;;;19.20;99.90;;;;;;4967946;28;20208;-87
2023/09/29 10:32:13;;;;;;;19.75;11.13;;;19.50;99.90;;;;;;4956017;28;20251;-88
2023/09/29 10:34:42;;;;;;;24.67;12.45;;;19.50;99.90;;;;;;4955518;28;20563;-88
2023/09/29 10:37:14;;;;;;;19.95;13.07;;;19.60;99.90;;;;;;4964811;28;20199;-89
2023/09/29 10:39:45;;;;;;;18.38;11.85;;;19.80;99.90;;;;;;4954525;28;20958;-87
2023/09/29 10:42:13;;;;;;;19.73;12.40;;;19.60;99.90;;;;;;4954751;28;20574;-87
2023/09/29 10:44:52;;;;;;;19.70;11.70;;;19.90;99.90;;;;;;4962615;28;20196;-88
2023/09/29 10:47:36;;;;;;;14.93;11.05;;;19.90;99.90;;;;;;4971709;28;20640;-87
2023/09/29 10:50:11;;;;;;;23.42;11.95;;;19.80;99.90;;;;;;4967922;28;20198;-87
2023/09/29 10:52:40;;;;;;;18.95;11.57;;;19.90;99.90;;;;;;4950259;29;20198;-88
2023/09/29 10:55:14;;;;;;;20.08;11.27;;;20.00;99.90;;;;;;4970879;28;20247;-88
2023/09/29 10:57:42;;;;;;;19.88;11.73;;;19.90;99.90;;;;;;4955243;28;20192;-88
2023/09/29 11:00:11;;;;;;;18.27;10.57;;;20.40;99.90;;;;;;4954848;28;20563;-88
2023/09/29 11:02:39;;;;;;;17.88;10.95;;;20.50;99.90;;;;;;4958708;28;20196;-88
2023/09/29 11:05:10;;;;;;;18.75;11.52;;;20.30;99.90;;;;;;4965471;28;20295;-87
2023/09/29 11:07:50;;;;;;;20.30;11.30;;;20.20;99.90;;;;;;4970930;28;20263;-87
2023/09/29 11:10:19;;;;;;;16.58;10.68;;;20.10;99.90;;;;;;4970135;28;20192;-89
2023/09/29 11:12:48;;;;;;;23.13;10.70;;;20.20;99.90;;;;;;4954756;28;20215;-88
2023/09/29 11:15:17;;;;;;;21.77;10.27;;;20.30;99.90;;;;;;4954516;28;20192;-89
2023/09/29 11:17:46;;;;;;;17.13;10.50;;;20.40;99.90;;;;;;4965845;28;20188;-87
2023/09/29 11:20:48;;;;;;;17.88;10.13;;;20.50;99.90;;;;;;4971759;28;20196;-88
2023/09/29 11:23:13;;;;;;;18.40;10.48;;;20.60;99.90;;;;;;4966232;28;20257;-87
2023/09/29 11:25:48;;;;;;;19.67;10.18;;;21.00;99.90;;;;;;4965441;28;20188;-88
2023/09/29 11:28:17;;;;;;;20.00;9.73;;;21.10;99.90;;;;;;4957315;28;20281;-86
2023/09/29 11:30:45;;;;;;;19.33;10.27;;;21.20;99.90;;;;;;4937473;28;20231;-87
2023/09/29 11:33:15;;;;;;;17.92;9.88;;;21.20;99.90;;;;;;4953441;28;20209;-88
2023/09/29 11:35:45;;;;;;;14.77;9.18;;;21.20;99.90;;;;;;4969949;28;20235;-88
2023/09/29 11:38:19;;;;;;;17.23;10.57;;;21.30;99.90;;;;;;4936505;28;20283;-86
2023/09/29 11:40:49;;;;;;;16.73;10.35;;;21.60;99.90;;;;;;4969373;28;20207;-87
2023/09/29 11:43:18;;;;;;;16.85;9.38;;;21.50;99.90;;;;;;4968227;28;20191;-86
2023/09/29 11:45:46;;;;;;;18.60;10.32;;;21.80;99.90;;;;;;4937630;28;20188;-88
2023/09/29 11:48:13;;;;;;;17.17;9.70;;;22.00;99.90;;;;;;4937064;29;20708;-88
2023/09/29 11:50:41;;;;;;;20.15;9.50;;;21.90;99.90;;;;;;4948074;28;20235;-88
2023/09/29 11:53:09;;;;;;;15.48;9.32;;;21.90;99.90;;;;;;4951703;28;20593;-89
2023/09/29 11:55:38;;;;;;;16.70;8.57;;;22.10;99.90;;;;;;4949560;28;20274;-89
2023/09/29 11:58:07;;;;;;;15.63;9.18;;;22.20;99.90;;;;;;4937342;28;20223;-89
2023/09/29 12:00:41;;;;;;;13.32;8.43;;;22.20;99.90;;;;;;4953926;28;20206;-88
2023/09/29 12:03:10;;;;;;;15.10;8.35;;;22.20;99.90;;;;;;4952885;28;20243;-88
2023/09/29 12:05:41;;;;;;;12.80;9.40;;;22.20;99.90;;;;;;4954479;28;20230;-89
2023/09/29 12:08:10;;;;;;;13.80;8.32;;;22.40;99.90;;;;;;4951150;29;20283;-88
2023/09/29 12:10:37;;;;;;;14.13;8.35;;;22.40;99.90;;;;;;4952395;28;20199;-88
2023/09/29 12:13:05;;;;;;;13.07;8.77;;;22.30;99.90;;;;;;4953377;28;20214;-88
2023/09/29 12:15:33;;;;;;;17.27;8.90;;;22.30;99.90;;;;;;4970921;28;20192;-88
2023/09/29 12:18:00;;;;;;;11.23;8.48;;;22.20;99.90;;;;;;4937662;28;20302;-86
2023/09/29 12:20:28;;;;;;;14.88;8.50;;;22.50;99.90;;;;;;4950652;29;20204;-88
2023/09/29 12:22:59;;;;;;;12.82;8.57;;;22.60;99.90;;;;;;4967805;28;20196;-88
2023/09/29 12:25:26;;;;;;;13.48;8.35;;;22.60;99.90;;;;;;4971220;28;20575;-87
2023/09/29 12:27:54;;;;;;;16.20;8.52;;;22.40;99.90;;;;;;4953195;28;20214;-88
2023/09/29 12:30:22;;;;;;;15.63;8.05;;;22.50;99.90;;;;;;4953023;28;20223;-88
2023/09/29 12:32:50;;;;;;;15.93;8.18;;;22.60;99.90;;;;;;4970645;28;20180;-86
2023/09/29 12:35:18;;;;;;;14.60;8.25;;;22.60;99.90;;;;;;4944636;28;20223;-89
2023/09/29 12:37:46;;;;;;;13.38;8.20;;;22.50;99.90;;;;;;4952128;28;20210;-86
2023/09/29 12:40:15;;;;;;;15.45;8.43;;;22.70;99.90;;;;;;4971039;28;20543;-89